createdAt,value
2018-02-14T00:00:23.857Z,5.57
2018-02-14T00:02:52.056Z,5.80
2018-02-14T00:05:19.856Z,2.50
2018-02-14T00:07:47.724Z,4.73
2018-02-14T00:10:15.561Z,7.43
2018-02-14T00:12:45.508Z,7.17
2018-02-14T00:15:13.501Z,4.37
2018-02-14T00:17:42.411Z,6.70
2018-02-14T00:20:13.051Z,4.27
2018-02-14T00:22:41.764Z,4.40
2018-02-14T00:25:09.757Z,1.87
2018-02-14T00:27:37.569Z,2.70
2018-02-14T00:30:06.416Z,4.67
2018-02-14T00:32:36.495Z,3.83
2018-02-14T00:35:04.298Z,8.00
2018-02-14T00:37:32.394Z,4.40
2018-02-14T00:40:00.189Z,2.63
2018-02-14T00:42:28.061Z,3.57
2018-02-14T00:44:57.416Z,8.30
2018-02-14T00:47:27.994Z,2.80
2018-02-14T00:49:55.784Z,4.10
2018-02-14T00:52:23.596Z,4.93
2018-02-14T00:54:51.526Z,6.77
2018-02-14T00:57:19.316Z,6.40
2018-02-14T00:59:50.754Z,2.17
2018-02-14T01:02:20.192Z,2.10
2018-02-14T01:04:48.016Z,2.00
2018-02-14T01:07:16.580Z,1.80
2018-02-14T01:09:44.454Z,7.70
2018-02-14T01:12:12.475Z,3.03
2018-02-14T01:14:42.561Z,8.83
2018-02-14T01:17:12.169Z,2.10
2018-02-14T01:19:41.326Z,3.50
2018-02-14T01:22:10.326Z,6.20
2018-02-14T01:24:38.124Z,5.67
2018-02-14T01:27:08.242Z,3.07
2018-02-14T01:29:38.331Z,4.63
2018-02-14T01:32:08.584Z,1.73
2018-02-14T01:34:38.876Z,5.47
2018-02-14T01:37:06.656Z,8.40
2018-02-14T01:39:34.553Z,8.73
2018-02-14T01:42:03.811Z,2.07
2018-02-14T01:44:33.602Z,5.60
2018-02-14T01:47:02.119Z,5.10
2018-02-14T01:49:32.440Z,4.77
2018-02-14T01:52:00.734Z,2.43
2018-02-14T01:54:29.361Z,2.10
2018-02-14T01:56:57.160Z,4.10
2018-02-14T01:59:25.805Z,3.20
2018-02-14T02:01:54.594Z,2.40
2018-02-14T02:04:22.465Z,4.13
2018-02-14T02:06:51.423Z,7.73
2018-02-14T02:09:19.330Z,2.70
2018-02-14T02:11:47.916Z,4.20
2018-02-14T02:14:21.168Z,4.17
2018-02-14T02:16:50.193Z,2.40
2018-02-14T02:19:18.021Z,3.83
2018-02-14T02:21:46.663Z,2.00
2018-02-14T02:24:14.508Z,3.27
2018-02-14T02:26:44.932Z,2.67
2018-02-14T02:29:12.732Z,2.70
2018-02-14T02:31:42.189Z,2.00
2018-02-14T02:34:11.009Z,2.93
2018-02-14T02:36:38.879Z,5.63
2018-02-14T02:39:18.689Z,2.93
2018-02-14T02:41:48.008Z,7.17
2018-02-14T02:44:17.015Z,3.77
2018-02-14T02:46:44.816Z,2.67
2018-02-14T02:49:13.535Z,4.90
2018-02-14T02:51:41.585Z,6.17
2018-02-14T02:54:09.384Z,10.73
2018-02-14T02:56:39.599Z,4.77
2018-02-14T02:59:07.495Z,2.93
2018-02-14T03:01:37.333Z,3.03
2018-02-14T03:04:06.225Z,2.57
2018-02-14T03:06:34.784Z,4.90
2018-02-14T03:09:05.842Z,4.17
2018-02-14T03:11:35.476Z,3.90
2018-02-14T03:14:04.391Z,3.10
2018-02-14T03:16:32.523Z,15.43
2018-02-14T03:19:01.063Z,12.00
2018-02-14T03:21:28.934Z,11.57
2018-02-14T03:23:56.951Z,7.07
2018-02-14T03:26:25.112Z,10.70
2018-02-14T03:28:53.851Z,3.20
2018-02-14T03:31:23.136Z,4.83
2018-02-14T03:33:51.888Z,3.33
2018-02-14T03:36:20.661Z,5.23
2018-02-14T03:38:49.212Z,2.23
2018-02-14T03:41:17.822Z,1.80
2018-02-14T03:43:47.524Z,4.10
2018-02-14T03:46:15.376Z,10.83
2018-02-14T03:48:43.220Z,6.30
2018-02-14T03:51:12.982Z,5.20
2018-02-14T03:53:48.345Z,3.67
2018-02-14T03:56:17.012Z,3.00
2018-02-14T03:58:46.240Z,5.33
2018-02-14T04:01:14.968Z,4.63
2018-02-14T04:03:42.833Z,5.13
2018-02-14T04:06:11.520Z,5.03
2018-02-14T04:08:40.873Z,6.10
2018-02-14T04:11:10.449Z,3.90
2018-02-14T04:13:39.428Z,3.47
2018-02-14T04:16:07.355Z,3.67
2018-02-14T04:18:37.808Z,2.30
2018-02-14T04:21:06.137Z,5.13
2018-02-14T04:23:36.636Z,4.00
2018-02-14T04:26:07.572Z,2.70
2018-02-14T04:28:38.572Z,5.80
2018-02-14T04:31:07.080Z,16.60
2018-02-14T04:33:35.724Z,6.63
2018-02-14T04:36:03.549Z,5.17
2018-02-14T04:38:33.292Z,9.73
2018-02-14T04:41:02.039Z,4.03
2018-02-14T04:43:30.828Z,6.30
2018-02-14T04:46:00.321Z,5.33
2018-02-14T04:48:28.528Z,4.07
2018-02-14T04:50:57.088Z,8.18
2018-02-14T04:53:25.897Z,4.97
2018-02-14T04:55:56.344Z,9.20
2018-02-14T04:58:24.966Z,11.73
2018-02-14T05:00:53.880Z,4.53
2018-02-14T05:03:22.660Z,8.33
2018-02-14T05:05:51.392Z,4.40
2018-02-14T05:08:19.967Z,8.47
2018-02-14T05:10:47.859Z,6.80
2018-02-14T05:13:15.808Z,8.57
2018-02-14T05:15:44.285Z,10.23
2018-02-14T05:18:12.715Z,4.27
2018-02-14T05:20:41.439Z,3.70
2018-02-14T05:23:09.606Z,3.80
2018-02-14T05:25:38.168Z,2.97
2018-02-14T05:28:06.016Z,4.00
2018-02-14T05:30:35.184Z,5.30
2018-02-14T05:33:04.487Z,3.13
2018-02-14T05:35:33.456Z,6.03
2018-02-14T05:38:01.613Z,5.10
2018-02-14T05:40:31.110Z,4.03
2018-02-14T05:42:59.665Z,4.07
2018-02-14T05:45:28.424Z,4.07
2018-02-14T05:47:57.297Z,3.73
2018-02-14T05:50:25.154Z,2.63
2018-02-14T05:52:57.739Z,7.03
2018-02-14T05:55:25.894Z,3.00
2018-02-14T05:57:55.291Z,2.60
2018-02-14T06:00:23.126Z,4.13
2018-02-14T06:02:52.559Z,3.73
2018-02-14T06:05:22.100Z,4.03
2018-02-14T06:07:49.881Z,3.73
2018-02-14T06:10:19.348Z,13.40
2018-02-14T06:12:48.191Z,4.67
2018-02-14T06:15:17.334Z,2.40
2018-02-14T06:17:45.328Z,8.20
2018-02-14T06:20:13.440Z,4.60
2018-02-14T06:22:42.214Z,4.10
2018-02-14T06:25:10.971Z,6.17
2018-02-14T06:27:38.819Z,4.47
2018-02-14T06:30:07.920Z,9.67
2018-02-14T06:32:35.772Z,4.07
2018-02-14T06:35:03.648Z,5.17
2018-02-14T06:37:32.336Z,5.77
2018-02-14T06:40:01.222Z,7.73
2018-02-14T06:42:30.578Z,3.17
2018-02-14T06:44:59.883Z,6.40
2018-02-14T06:47:28.985Z,3.33
2018-02-14T06:49:59.641Z,4.57
2018-02-14T06:52:28.291Z,2.23
2018-02-14T06:54:57.927Z,4.40
2018-02-14T06:57:27.253Z,11.73
2018-02-14T06:59:55.792Z,2.20
2018-02-14T07:02:26.329Z,7.23
2018-02-14T07:04:55.763Z,3.50
2018-02-14T07:07:25.836Z,3.63
2018-02-14T07:09:56.248Z,6.33
2018-02-14T07:12:24.761Z,3.70
2018-02-14T07:14:55.152Z,6.27
2018-02-14T07:17:22.970Z,2.33
2018-02-14T07:19:52.284Z,8.30
2018-02-14T07:22:20.084Z,10.60
2018-02-14T07:24:49.773Z,5.73
2018-02-14T07:27:20.253Z,4.00
2018-02-14T07:29:48.840Z,6.33
2018-02-14T07:32:17.430Z,6.37
2018-02-14T07:34:46.314Z,6.30
2018-02-14T07:37:14.406Z,2.70
2018-02-14T07:39:42.308Z,5.03
2018-02-14T07:42:10.372Z,5.00
2018-02-14T07:44:39.393Z,6.80
2018-02-14T07:47:09.774Z,18.93
2018-02-14T07:49:41.637Z,13.00
2018-02-14T07:52:09.876Z,18.63
2018-02-14T07:57:13.256Z,21.35
2018-02-14T07:59:41.778Z,10.93
2018-02-14T08:02:10.884Z,8.67
2018-02-14T08:04:38.693Z,9.83
2018-02-14T08:07:09.345Z,17.53
2018-02-14T08:09:38.419Z,7.33
2018-02-14T08:12:06.250Z,14.33
2018-02-14T08:14:35.109Z,12.60
2018-02-14T08:17:05.673Z,6.70
2018-02-14T08:19:34.492Z,8.43
2018-02-14T08:22:03.880Z,12.60
2018-02-14T08:24:33.221Z,9.77
2018-02-14T08:27:01.879Z,17.53
2018-02-14T08:29:32.134Z,13.13
2018-02-14T08:32:01.856Z,10.53
2018-02-14T08:34:29.684Z,16.62
2018-02-14T08:36:58.449Z,10.07
2018-02-14T08:39:27.356Z,13.80
2018-02-14T08:41:55.431Z,14.40
2018-02-14T08:44:23.578Z,14.37
2018-02-14T08:46:51.934Z,18.97
2018-02-14T08:49:19.984Z,23.93
2018-02-14T08:51:47.785Z,28.10
2018-02-14T08:54:16.285Z,19.40
2018-02-14T08:56:44.420Z,14.27
2018-02-14T08:59:13.766Z,19.27
2018-02-14T09:01:42.585Z,18.50
2018-02-14T09:04:10.492Z,63.90
2018-02-14T09:06:38.613Z,89.30
2018-02-14T09:09:06.567Z,34.30
2018-02-14T09:11:35.024Z,33.57
2018-02-14T09:14:03.828Z,21.53
2018-02-14T09:16:31.632Z,15.75
2018-02-14T09:19:00.367Z,13.27
2018-02-14T09:21:29.925Z,9.50
2018-02-14T09:23:57.762Z,12.82
2018-02-14T09:26:26.549Z,14.13
2018-02-14T09:28:54.377Z,11.10
2018-02-14T09:31:23.417Z,8.85
2018-02-14T09:33:51.289Z,7.57
2018-02-14T09:36:20.535Z,7.27
2018-02-14T09:38:48.325Z,7.37
2018-02-14T09:41:16.126Z,9.73
2018-02-14T09:43:45.253Z,11.00
2018-02-14T09:46:13.841Z,16.93
2018-02-14T09:48:41.770Z,22.20
2018-02-14T09:51:09.643Z,12.60
2018-02-14T09:53:38.201Z,16.50
2018-02-14T09:56:06.143Z,4.63
2018-02-14T09:58:33.956Z,9.50
2018-02-14T10:01:01.896Z,15.37
2018-02-14T10:03:29.696Z,8.53
2018-02-14T10:05:58.277Z,7.07
2018-02-14T10:08:27.620Z,12.77
2018-02-14T10:10:56.085Z,13.30
2018-02-14T10:13:23.936Z,10.73
2018-02-14T10:15:52.564Z,16.70
2018-02-14T10:18:20.392Z,12.97
2018-02-14T10:20:48.184Z,11.43
2018-02-14T10:23:16.021Z,8.27
2018-02-14T10:25:44.287Z,6.13
2018-02-14T10:28:14.865Z,9.37
2018-02-14T10:30:43.588Z,5.50
2018-02-14T10:33:12.186Z,5.23
2018-02-14T10:35:40.770Z,4.50
2018-02-14T10:38:08.605Z,5.10
2018-02-14T10:40:37.181Z,7.70
2018-02-14T10:43:05.012Z,8.40
2018-02-14T10:45:32.804Z,9.33
2018-02-14T10:48:00.604Z,8.63
2018-02-14T10:50:29.189Z,8.63
2018-02-14T10:52:57.732Z,5.90
2018-02-14T10:55:25.556Z,5.77
2018-02-14T10:57:54.264Z,4.23
2018-02-14T11:00:28.737Z,16.47
2018-02-14T11:03:04.580Z,7.73
2018-02-14T11:05:34.151Z,7.97
2018-02-14T11:08:01.936Z,8.60
2018-02-14T11:10:29.764Z,6.13
2018-02-14T11:12:58.555Z,6.93
2018-02-14T11:15:26.339Z,7.10
2018-02-14T11:17:54.144Z,5.70
2018-02-14T11:20:22.900Z,10.90
2018-02-14T11:22:50.740Z,8.37
2018-02-14T11:25:18.522Z,8.23
2018-02-14T11:27:46.332Z,5.40
2018-02-14T11:30:16.429Z,8.43
2018-02-14T11:32:45.957Z,8.90
2018-02-14T11:35:14.544Z,6.87
2018-02-14T11:37:43.788Z,8.07
2018-02-14T11:40:11.600Z,5.17
2018-02-14T11:42:41.172Z,5.00
2018-02-14T11:45:08.976Z,9.77
2018-02-14T11:47:37.523Z,6.37
2018-02-14T11:50:05.382Z,8.67
2018-02-14T11:52:33.184Z,12.17
2018-02-14T11:55:01.737Z,10.87
2018-02-14T11:57:29.533Z,8.93
2018-02-14T11:59:58.080Z,9.50
2018-02-14T12:02:25.884Z,17.87
2018-02-14T12:04:53.666Z,15.00
2018-02-14T12:07:21.444Z,11.33
2018-02-14T12:09:49.319Z,15.93
2018-02-14T12:12:17.133Z,9.00
2018-02-14T12:14:45.047Z,10.17
2018-02-14T12:17:12.874Z,15.43
2018-02-14T12:19:40.708Z,10.23
2018-02-14T12:22:08.495Z,12.03
2018-02-14T12:24:37.189Z,15.20
2018-02-14T12:27:05.789Z,6.10
2018-02-14T12:29:33.644Z,12.07
2018-02-14T12:32:02.117Z,9.70
2018-02-14T12:34:31.595Z,9.67
2018-02-14T12:37:00.236Z,10.30
2018-02-14T12:39:28.027Z,9.83
2018-02-14T12:41:55.856Z,9.13
2018-02-14T12:44:23.651Z,10.70
2018-02-14T12:46:52.392Z,19.53
2018-02-14T12:49:20.255Z,8.17
2018-02-14T12:51:48.885Z,12.50
2018-02-14T12:54:16.728Z,7.23
2018-02-14T12:56:44.825Z,9.07
2018-02-14T12:59:14.637Z,5.30
2018-02-14T13:01:42.417Z,11.43
2018-02-14T13:04:10.267Z,9.07
2018-02-14T13:06:38.149Z,13.77
2018-02-14T13:09:05.960Z,15.07
2018-02-14T13:11:33.773Z,13.33
2018-02-14T13:14:02.379Z,11.90
2018-02-14T13:16:30.188Z,15.50
2018-02-14T13:18:58.177Z,10.37
2018-02-14T13:21:26.044Z,12.50
2018-02-14T13:23:53.872Z,15.70
2018-02-14T13:26:21.681Z,11.87
2018-02-14T13:28:49.528Z,13.80
2018-02-14T13:31:17.326Z,10.90
2018-02-14T13:33:45.160Z,19.70
2018-02-14T13:36:13.045Z,11.70
2018-02-14T13:38:40.846Z,22.10
2018-02-14T13:41:09.402Z,13.62
2018-02-14T13:43:37.210Z,14.17
2018-02-14T13:46:05.021Z,9.30
2018-02-14T13:48:33.720Z,14.33
2018-02-14T13:51:01.599Z,18.17
2018-02-14T13:53:30.160Z,9.57
2018-02-14T13:55:58.825Z,13.20
2018-02-14T13:58:26.607Z,8.10
2018-02-14T14:00:54.490Z,11.67
2018-02-14T14:03:22.270Z,11.63
2018-02-14T14:05:50.845Z,4.27
2018-02-14T14:08:19.398Z,4.17
2018-02-14T14:10:47.215Z,6.10
2018-02-14T14:13:15.017Z,3.80
2018-02-14T14:15:42.791Z,9.50
2018-02-14T14:18:10.579Z,6.53
2018-02-14T14:20:38.401Z,3.37
2018-02-14T14:23:06.216Z,4.03
2018-02-14T14:25:34.004Z,2.80
2018-02-14T14:28:02.623Z,4.10
2018-02-14T14:30:30.425Z,10.13
2018-02-14T14:32:58.290Z,10.50
2018-02-14T14:35:26.934Z,5.47
2018-02-14T14:37:54.723Z,8.10
2018-02-14T14:40:22.524Z,11.40
2018-02-14T14:42:51.638Z,14.83
2018-02-14T14:45:19.496Z,13.90
2018-02-14T14:47:47.275Z,15.13
2018-02-14T14:50:15.073Z,22.10
2018-02-14T14:52:42.861Z,15.43
2018-02-14T14:55:10.661Z,8.50
2018-02-14T14:57:38.464Z,12.27
2018-02-14T15:00:06.326Z,7.83
2018-02-14T15:02:34.137Z,7.40
2018-02-14T15:05:02.751Z,9.23
2018-02-14T15:07:30.558Z,10.27
2018-02-14T15:09:58.340Z,10.10
2018-02-14T15:12:26.352Z,13.63
2018-02-14T15:14:54.198Z,4.93
2018-02-14T15:17:22.749Z,9.53
2018-02-14T15:19:50.540Z,10.10
2018-02-14T15:22:19.088Z,9.07
2018-02-14T15:24:46.874Z,13.70
2018-02-14T15:27:15.426Z,13.65
2018-02-14T15:29:43.232Z,8.23
2018-02-14T15:32:11.809Z,11.33
2018-02-14T15:34:40.528Z,15.20
2018-02-14T15:37:08.376Z,7.70
2018-02-14T15:39:36.204Z,19.57
2018-02-14T15:42:03.996Z,11.63
2018-02-14T15:44:31.784Z,13.57
2018-02-14T15:47:00.108Z,10.27
2018-02-14T15:49:27.930Z,20.03
2018-02-14T15:51:55.821Z,7.87
2018-02-14T15:54:23.935Z,14.40
2018-02-14T15:56:52.747Z,11.83
2018-02-14T15:59:20.608Z,16.27
2018-02-14T16:01:48.429Z,13.00
2018-02-14T16:04:16.284Z,13.90
2018-02-14T16:06:45.077Z,15.60
2018-02-14T16:09:12.852Z,9.30
2018-02-14T16:11:41.716Z,11.17
2018-02-14T16:14:09.541Z,17.33
2018-02-14T16:16:37.347Z,14.13
2018-02-14T16:19:05.145Z,14.10
2018-02-14T16:21:34.336Z,14.73
2018-02-14T16:24:02.795Z,13.27
2018-02-14T16:26:31.589Z,19.40
2018-02-14T16:29:00.590Z,10.00
2018-02-14T16:31:28.440Z,13.47
2018-02-14T16:33:56.324Z,10.07
2018-02-14T16:36:24.132Z,19.60
2018-02-14T16:38:51.949Z,12.70
2018-02-14T16:41:19.821Z,10.37
2018-02-14T16:43:47.614Z,25.10
2018-02-14T16:46:16.812Z,20.87
2018-02-14T16:48:46.052Z,17.40
2018-02-14T16:51:14.545Z,18.17
2018-02-14T16:53:43.153Z,18.50
2018-02-14T16:56:11.759Z,16.10
2018-02-14T16:58:40.336Z,20.30
2018-02-14T17:01:09.149Z,10.90
2018-02-14T17:03:37.040Z,15.37
2018-02-14T17:06:04.890Z,9.03
2018-02-14T17:08:33.059Z,14.10
2018-02-14T17:11:00.860Z,6.10
2018-02-14T17:13:29.536Z,15.87
2018-02-14T17:15:57.316Z,10.20
2018-02-14T17:18:25.297Z,26.47
2018-02-14T17:20:53.396Z,10.20
2018-02-14T17:23:21.193Z,17.97
2018-02-14T17:25:49.911Z,18.23
2018-02-14T17:28:17.737Z,20.10
2018-02-14T17:30:45.814Z,10.10
2018-02-14T17:33:13.746Z,10.70
2018-02-14T17:35:43.236Z,17.93
2018-02-14T17:38:12.074Z,15.23
2018-02-14T17:40:40.789Z,17.47
2018-02-14T17:43:08.626Z,18.67
2018-02-14T17:45:37.386Z,14.80
2018-02-14T17:48:05.842Z,16.53
2018-02-14T17:50:37.489Z,14.10
2018-02-14T17:53:05.276Z,23.97
2018-02-14T17:55:34.000Z,17.90
2018-02-14T17:58:01.807Z,19.83
2018-02-14T18:00:30.521Z,11.47
2018-02-14T18:02:59.240Z,22.20
2018-02-14T18:05:27.196Z,16.97
2018-02-14T18:07:55.003Z,19.73
2018-02-14T18:10:22.867Z,23.07
2018-02-14T18:12:50.684Z,18.60
2018-02-14T18:15:18.600Z,22.20
2018-02-14T18:17:46.528Z,21.20
2018-02-14T18:20:14.582Z,26.17
2018-02-14T18:22:42.389Z,18.98
2018-02-14T18:25:10.261Z,22.27
2018-02-14T18:27:39.055Z,23.07
2018-02-14T18:30:06.918Z,17.27
2018-02-14T18:32:34.727Z,24.97
2018-02-14T18:35:03.563Z,25.27
2018-02-14T18:37:31.362Z,28.83
2018-02-14T18:39:59.940Z,23.93
2018-02-14T18:42:27.759Z,32.83
2018-02-14T18:44:55.554Z,22.03
2018-02-14T18:47:23.404Z,17.03
2018-02-14T18:49:51.211Z,20.13
2018-02-14T18:54:55.334Z,20.47
2018-02-14T18:57:24.797Z,28.30
2018-02-14T18:59:52.589Z,17.87
2018-02-14T19:02:20.465Z,14.90
2018-02-14T19:04:49.265Z,24.63
2018-02-14T19:07:18.659Z,16.23
2018-02-14T19:09:47.283Z,31.63
2018-02-14T19:12:15.955Z,22.20
2018-02-14T19:14:43.756Z,27.00
2018-02-14T19:17:11.589Z,21.70
2018-02-14T19:19:39.445Z,22.73
2018-02-14T19:22:08.231Z,34.33
2018-02-14T19:24:36.024Z,27.07
2018-02-14T19:27:04.643Z,22.57
2018-02-14T19:57:35.205Z,29.63
2018-02-14T20:00:03.120Z,25.93
2018-02-14T20:02:31.043Z,22.23
2018-02-14T20:05:00.269Z,19.20
2018-02-14T20:07:28.076Z,30.50
2018-02-14T20:09:56.620Z,23.03
2018-02-14T20:12:24.437Z,17.70
2018-02-14T20:14:53.306Z,20.03
2018-02-14T20:17:21.860Z,21.30
2018-02-14T20:19:49.668Z,21.13
2018-02-14T20:22:18.364Z,26.73
2018-02-14T20:24:46.209Z,27.87
2018-02-14T20:27:14.887Z,23.17
2018-02-14T20:29:44.268Z,18.03
2018-02-14T20:32:12.124Z,18.67
2018-02-14T20:34:39.912Z,15.50
2018-02-14T20:37:07.697Z,17.20
2018-02-14T20:39:37.189Z,16.87
2018-02-14T20:42:05.848Z,14.27
2018-02-14T20:44:33.743Z,14.40
2018-02-14T20:47:02.371Z,27.83
2018-02-14T20:49:30.245Z,23.87
2018-02-14T20:51:58.079Z,18.40
2018-02-14T20:54:25.940Z,20.57
2018-02-14T20:56:54.532Z,28.50
2018-02-14T20:59:22.441Z,23.67
2018-02-14T21:01:51.120Z,22.43
2018-02-14T21:04:18.941Z,25.13
2018-02-14T21:06:48.420Z,28.55
2018-02-14T21:09:16.981Z,17.13
2018-02-14T21:11:44.844Z,18.80
2018-02-14T21:14:12.645Z,13.93
2018-02-14T21:16:41.276Z,21.33
2018-02-14T21:19:09.082Z,18.67
2018-02-14T21:21:37.533Z,16.57
2018-02-14T21:24:05.721Z,19.60
2018-02-14T21:26:34.669Z,16.00
2018-02-14T21:29:04.607Z,26.70
2018-02-14T21:31:32.465Z,51.87
2018-02-14T21:34:00.308Z,17.73
2018-02-14T21:36:28.457Z,19.53
2018-02-14T21:38:57.859Z,22.30
2018-02-14T21:41:26.750Z,26.30
2018-02-14T21:43:56.270Z,30.33
2018-02-14T21:46:28.014Z,29.07
2018-02-14T21:48:58.347Z,24.90
2018-02-14T21:51:26.472Z,24.47
2018-02-14T21:53:55.124Z,30.23
2018-02-14T21:56:23.637Z,18.03
2018-02-14T21:58:51.980Z,15.53
2018-02-14T22:01:20.804Z,18.40
2018-02-14T22:03:48.906Z,21.23
2018-02-14T22:06:19.316Z,22.80
2018-02-14T22:18:45.803Z,17.17
2018-02-14T22:24:34.898Z,19.23
2018-02-14T23:35:12.045Z,8.87
2018-02-14T23:37:40.642Z,6.73
2018-02-14T23:40:09.696Z,10.60
2018-02-14T23:42:38.221Z,5.57
2018-02-14T23:45:07.928Z,7.10
2018-02-14T23:47:36.199Z,13.13
2018-02-14T23:50:05.010Z,6.87
2018-02-14T23:52:32.828Z,12.63
2018-02-14T23:55:00.743Z,7.30
2018-02-14T23:57:28.538Z,5.40
2018-02-14T23:59:56.544Z,5.23
